Pagina principale
METAR-TAF:

METAR-TAF

Aeroporti :

Aeroporto d'Engadina

Sankt Moritz, Svizzera

latitudine: 46-32-03N, longitudine: 9-53-03E, altezza: 1707 m

Osservazione

Il bollettino è stato emesso 15 minuti fa, alle 15:50 UTC
Vento 13 kt da ovest/nord-ovest con raffiche fino a 24 kt
Temperature 15°C
Umidità 25%
Pressione 1022 hPa
Visibilità 10 km o più
Poco nuvoloso ad un'altezza di 7000 ft

METAR: LSZS 231550Z 30013G24KT 9999 FEW070 15/M05 Q1022 RMK T

Ora: 18:05 (16:05 UTC)

Previsione

Il bollettino è stato emesso 1 ora e 40 minuti fa, alle 14:25 UTC
Previsione valida dal 23 alle 15 UTC al 23 alle 24 UTC
Vento 10 kt da nord-ovest
Visibilità 10 km o più
Poco nuvoloso ad un'altezza di 7000 ft
Evoluzione graduale
dal 23 alle 19 UTC al 23 alle 22 UTC
Vento 3 kt da direzioni variabili

TAF: LSZS 231425Z 2315/2324 32010KT 9999 FEW070 TX15/2315Z BECMG 2319/2322 VRB03KT

Osservazioni e previsioni meteorologiche di più di 4000 aeroporti (messaggi METAR e TAF).

Le stazioni disponibili sono rappresentate dai dischi gialli e rossi sulla carta.

Puntare il mouse per vedere il nome della stazione.

Clicca sopra per visualizzare le osservazioni e previsioni meteorologiche.

Per cambiare la mappa : fare clic sui pulsanti verdi con una croce nera per ingrandire, il pulsante verde con un trattino per diminuire, o sulla freccia verde per le mappe adiacenti.


METAR-TAF: